createdAt,value
2019-03-29T00:00:16.324Z,10.82
2019-03-29T00:02:44.777Z,11.83
2019-03-29T00:05:13.081Z,10.95
2019-03-29T00:07:41.966Z,10.72
2019-03-29T00:10:10.610Z,10.18
2019-03-29T00:12:39.012Z,10.72
2019-03-29T00:15:08.072Z,12.58
2019-03-29T00:17:36.741Z,10.43
2019-03-29T00:20:06.889Z,11.80
2019-03-29T00:22:35.245Z,13.98
2019-03-29T00:25:03.627Z,14.20
2019-03-29T00:27:32.002Z,11.43
2019-03-29T00:30:00.370Z,14.07
2019-03-29T00:32:28.768Z,13.03
2019-03-29T00:34:57.146Z,11.33
2019-03-29T00:37:25.530Z,11.30
2019-03-29T00:39:53.905Z,10.30
2019-03-29T00:42:22.304Z,13.58
2019-03-29T00:44:50.676Z,13.22
2019-03-29T00:47:19.076Z,11.53
2019-03-29T00:49:47.438Z,11.90
2019-03-29T00:52:16.814Z,13.32
2019-03-29T00:54:45.302Z,10.80
2019-03-29T00:57:13.715Z,12.88
2019-03-29T00:59:42.087Z,12.68
2019-03-29T01:02:10.632Z,13.58
2019-03-29T01:04:39.010Z,15.23
2019-03-29T01:07:07.383Z,12.85
2019-03-29T01:09:35.789Z,13.55
2019-03-29T01:12:04.164Z,16.60
2019-03-29T01:14:32.545Z,13.80
2019-03-29T01:17:00.915Z,15.78
2019-03-29T01:19:29.902Z,13.93
2019-03-29T01:21:58.265Z,14.03
2019-03-29T01:24:26.672Z,12.23
2019-03-29T01:26:55.045Z,13.13
2019-03-29T01:29:23.441Z,11.40
2019-03-29T01:31:51.800Z,11.90
2019-03-29T01:34:20.203Z,13.58
2019-03-29T01:36:48.562Z,12.90
2019-03-29T01:39:17.003Z,13.53
2019-03-29T01:41:45.556Z,12.98
2019-03-29T01:44:13.958Z,12.63
2019-03-29T01:46:42.336Z,13.68
2019-03-29T01:49:10.751Z,10.82
2019-03-29T01:51:39.165Z,13.93
2019-03-29T01:54:07.560Z,11.88
2019-03-29T01:56:35.924Z,13.15
2019-03-29T01:59:04.376Z,13.80
2019-03-29T02:01:32.766Z,9.75
2019-03-29T02:04:01.241Z,10.63
2019-03-29T02:06:29.629Z,12.15
2019-03-29T02:08:58.041Z,11.35
2019-03-29T02:11:26.537Z,13.83
2019-03-29T02:13:55.029Z,12.65
2019-03-29T02:16:23.433Z,13.68
2019-03-29T02:18:51.855Z,11.57
2019-03-29T02:21:20.243Z,13.80
2019-03-29T02:23:48.745Z,12.25
2019-03-29T02:26:17.101Z,14.93
2019-03-29T02:28:45.497Z,12.75
2019-03-29T02:31:13.942Z,13.75
2019-03-29T02:33:42.337Z,12.78
2019-03-29T02:36:10.764Z,11.53
2019-03-29T02:38:54.080Z,13.88
2019-03-29T02:41:09.730Z,14.73
2019-03-29T02:43:38.671Z,13.53
2019-03-29T02:46:07.362Z,14.40
2019-03-29T02:48:35.921Z,12.43
2019-03-29T02:51:04.751Z,11.65
2019-03-29T02:53:33.648Z,13.13
2019-03-29T02:56:02.059Z,11.33
2019-03-29T02:58:30.558Z,10.20
2019-03-29T03:00:58.980Z,10.85
2019-03-29T03:03:27.373Z,10.90
2019-03-29T03:05:55.787Z,11.65
2019-03-29T03:08:24.173Z,10.78
2019-03-29T03:10:52.598Z,14.00
2019-03-29T03:13:20.997Z,13.83
2019-03-29T03:15:49.507Z,13.93
2019-03-29T03:18:17.864Z,12.10
2019-03-29T03:20:46.278Z,15.50
2019-03-29T03:23:14.787Z,13.78
2019-03-29T03:25:43.219Z,12.33
2019-03-29T03:28:11.609Z,12.35
2019-03-29T03:30:40.048Z,12.43
2019-03-29T03:33:08.501Z,13.18
2019-03-29T03:35:37.018Z,14.00
2019-03-29T03:38:05.445Z,12.53
2019-03-29T03:40:33.882Z,13.72
2019-03-29T03:43:02.350Z,13.43
2019-03-29T03:45:30.786Z,12.33
2019-03-29T03:47:59.183Z,13.25
2019-03-29T03:50:46.996Z,10.78
2019-03-29T03:53:15.368Z,15.23
2019-03-29T03:55:43.769Z,15.80
2019-03-29T03:58:12.318Z,17.87
2019-03-29T04:00:55.549Z,18.35
2019-03-29T04:03:24.069Z,23.00
2019-03-29T04:05:52.460Z,17.52
2019-03-29T04:08:20.878Z,17.75
2019-03-29T04:10:49.246Z,19.02
2019-03-29T04:13:17.618Z,14.85
2019-03-29T04:15:46.025Z,14.58
2019-03-29T04:18:16.094Z,15.23
2019-03-29T04:20:44.480Z,14.70
2019-03-29T04:23:12.845Z,15.10
2019-03-29T04:25:41.267Z,14.80
2019-03-29T04:28:09.633Z,19.15
2019-03-29T04:30:38.020Z,17.77
2019-03-29T04:33:10.833Z,16.93
2019-03-29T04:35:36.520Z,19.32
2019-03-29T04:38:04.825Z,14.40
2019-03-29T04:40:33.219Z,15.65
2019-03-29T04:43:01.619Z,13.62
2019-03-29T04:45:30.013Z,15.65
2019-03-29T04:47:58.404Z,16.50
2019-03-29T04:50:28.001Z,13.25
2019-03-29T04:52:56.370Z,16.17
2019-03-29T04:55:24.779Z,14.83
2019-03-29T04:57:53.133Z,13.00
2019-03-29T05:00:21.623Z,15.00
2019-03-29T05:02:50.013Z,16.05
2019-03-29T05:05:18.408Z,15.13
2019-03-29T05:07:46.784Z,14.50
2019-03-29T05:10:21.445Z,16.37
2019-03-29T05:12:45.208Z,19.27
2019-03-29T05:15:13.590Z,25.10
2019-03-29T05:17:41.989Z,20.40
2019-03-29T05:20:10.365Z,27.37
2019-03-29T05:22:38.768Z,28.42
2019-03-29T05:25:07.185Z,26.77
2019-03-29T05:27:35.597Z,30.10
2019-03-29T05:30:05.323Z,23.67
2019-03-29T05:32:33.710Z,23.05
2019-03-29T05:35:02.155Z,25.05
2019-03-29T05:37:30.552Z,25.48
2019-03-29T05:39:58.931Z,23.40
2019-03-29T05:42:27.388Z,22.85
2019-03-29T05:44:55.796Z,25.77
2019-03-29T05:47:24.179Z,27.20
2019-03-29T05:49:52.551Z,23.38
2019-03-29T05:52:20.938Z,25.72
2019-03-29T05:54:49.320Z,25.23
2019-03-29T05:57:17.720Z,27.48
2019-03-29T05:59:46.101Z,22.85
2019-03-29T06:02:14.497Z,25.92
2019-03-29T06:04:42.877Z,27.13
2019-03-29T06:07:11.276Z,24.43
2019-03-29T06:09:39.657Z,23.98
2019-03-29T06:12:08.055Z,25.30
2019-03-29T06:14:36.446Z,23.38
2019-03-29T06:17:04.832Z,26.57
2019-03-29T06:19:33.207Z,23.57
2019-03-29T06:22:01.612Z,23.12
2019-03-29T06:24:29.976Z,24.35
2019-03-29T06:26:58.373Z,23.20
2019-03-29T06:29:26.743Z,25.40
2019-03-29T06:31:55.158Z,28.90
2019-03-29T06:34:23.520Z,28.90
2019-03-29T06:36:51.920Z,22.02
2019-03-29T06:39:21.389Z,24.57
2019-03-29T06:41:49.938Z,20.97
2019-03-29T06:44:18.321Z,19.73
2019-03-29T06:46:46.720Z,20.75
2019-03-29T06:49:15.103Z,19.30
2019-03-29T06:51:43.512Z,21.42
2019-03-29T06:54:11.900Z,21.85
2019-03-29T06:56:40.304Z,22.85
2019-03-29T06:59:08.699Z,19.75
2019-03-29T07:01:37.096Z,20.37
2019-03-29T07:04:05.471Z,21.87
2019-03-29T07:06:33.875Z,25.90
2019-03-29T07:09:02.256Z,23.60
2019-03-29T07:11:30.654Z,24.50
2019-03-29T07:13:59.035Z,22.15
2019-03-29T07:16:27.439Z,25.02
2019-03-29T07:18:55.816Z,22.73
2019-03-29T07:21:24.201Z,24.18
2019-03-29T07:23:52.599Z,24.07
2019-03-29T07:26:20.980Z,22.37
2019-03-29T07:28:49.403Z,21.35
2019-03-29T07:31:17.782Z,23.27
2019-03-29T07:33:46.116Z,22.90
2019-03-29T07:36:14.500Z,25.85
2019-03-29T07:38:42.904Z,22.73
2019-03-29T07:41:11.298Z,24.25
2019-03-29T07:43:39.699Z,23.15
2019-03-29T07:46:08.075Z,24.72
2019-03-29T07:48:36.463Z,23.18
2019-03-29T07:51:04.908Z,23.67
2019-03-29T07:53:33.229Z,24.27
2019-03-29T07:56:01.608Z,22.48
2019-03-29T07:58:29.999Z,23.83
2019-03-29T08:00:58.378Z,22.30
2019-03-29T08:03:26.775Z,20.92
2019-03-29T08:05:55.144Z,22.80
2019-03-29T08:08:29.101Z,24.12
2019-03-29T08:10:54.217Z,22.30
2019-03-29T08:13:22.666Z,22.87
2019-03-29T08:15:51.030Z,23.67
2019-03-29T08:18:19.468Z,22.50
2019-03-29T08:20:49.472Z,21.82
2019-03-29T08:23:17.867Z,19.73
2019-03-29T08:25:46.246Z,23.50
2019-03-29T08:28:14.646Z,23.83
2019-03-29T08:30:43.024Z,22.85
2019-03-29T08:33:11.492Z,21.48
2019-03-29T08:35:41.466Z,22.93
2019-03-29T08:38:09.763Z,22.25
2019-03-29T08:40:38.138Z,22.77
2019-03-29T08:43:06.544Z,25.50
2019-03-29T08:45:34.925Z,21.57
2019-03-29T08:48:06.509Z,23.67
2019-03-29T08:50:33.359Z,19.82
2019-03-29T08:53:01.896Z,19.95
2019-03-29T08:55:30.276Z,20.68
2019-03-29T08:57:58.903Z,23.00
2019-03-29T09:00:30.595Z,19.92
2019-03-29T09:02:58.988Z,23.52
2019-03-29T09:05:27.399Z,18.62
2019-03-29T09:07:55.802Z,19.25
2019-03-29T09:10:27.619Z,18.75
2019-03-29T09:12:56.028Z,17.65
2019-03-29T09:15:24.446Z,20.88
2019-03-29T09:17:52.844Z,20.12
2019-03-29T09:20:21.227Z,20.17
2019-03-29T09:22:49.644Z,18.65
2019-03-29T09:25:20.887Z,16.55
2019-03-29T09:27:48.067Z,17.20
2019-03-29T09:30:16.457Z,16.37
2019-03-29T09:32:44.866Z,14.80
2019-03-29T09:35:13.267Z,17.35
2019-03-29T09:37:41.665Z,14.83
2019-03-29T09:40:10.060Z,16.55
2019-03-29T09:42:38.447Z,15.20
2019-03-29T09:45:07.472Z,13.43
2019-03-29T09:47:40.171Z,14.00
2019-03-29T09:50:10.060Z,12.80
2019-03-29T09:52:36.928Z,12.98
2019-03-29T09:55:05.380Z,12.55
2019-03-29T09:57:38.199Z,12.60
2019-03-29T10:00:18.017Z,12.55
2019-03-29T10:02:36.738Z,13.40
2019-03-29T10:05:05.962Z,10.30
2019-03-29T10:07:34.322Z,10.75
2019-03-29T10:10:02.724Z,10.32
2019-03-29T10:12:42.802Z,11.35
2019-03-29T10:15:01.140Z,9.48
2019-03-29T10:17:29.514Z,9.35
2019-03-29T10:19:57.979Z,11.95
2019-03-29T10:22:26.361Z,11.03
2019-03-29T10:24:54.764Z,10.98
2019-03-29T10:27:23.141Z,9.48
2019-03-29T10:29:51.551Z,10.15
2019-03-29T10:32:19.918Z,9.93
2019-03-29T10:34:48.311Z,9.33
2019-03-29T10:37:16.675Z,8.93
2019-03-29T10:39:45.087Z,9.43
2019-03-29T10:42:14.349Z,9.38
2019-03-29T10:44:42.746Z,8.18
2019-03-29T10:47:11.135Z,11.05
2019-03-29T10:49:39.531Z,9.33
2019-03-29T10:52:07.908Z,10.98
2019-03-29T10:54:36.303Z,9.15
2019-03-29T10:57:04.673Z,8.70
2019-03-29T10:59:33.079Z,10.10
2019-03-29T11:02:01.446Z,9.38
2019-03-29T11:04:31.834Z,9.13
2019-03-29T11:06:59.865Z,8.23
2019-03-29T11:09:28.261Z,8.83
2019-03-29T11:11:56.626Z,7.08
2019-03-29T11:14:25.027Z,6.70
2019-03-29T11:16:53.390Z,8.93
2019-03-29T11:19:21.819Z,8.03
2019-03-29T11:21:50.211Z,8.58
2019-03-29T11:24:18.611Z,7.75
2019-03-29T11:26:46.985Z,7.40
2019-03-29T11:29:15.392Z,7.35
2019-03-29T11:31:43.768Z,6.50
2019-03-29T11:34:12.175Z,5.72
2019-03-29T11:36:40.533Z,7.37
2019-03-29T11:39:08.924Z,7.20
2019-03-29T11:41:37.307Z,8.80
2019-03-29T11:44:05.679Z,7.97
2019-03-29T11:46:34.071Z,8.00
2019-03-29T11:49:02.527Z,6.67
2019-03-29T11:51:30.915Z,6.95
2019-03-29T11:53:59.354Z,7.72
2019-03-29T11:56:27.747Z,7.85
2019-03-29T11:58:56.122Z,6.95
2019-03-29T12:01:24.536Z,6.20
2019-03-29T12:03:52.911Z,8.45
2019-03-29T12:06:21.302Z,8.28
2019-03-29T12:08:49.673Z,7.55
2019-03-29T12:11:18.078Z,9.00
2019-03-29T12:13:46.501Z,7.42
2019-03-29T12:16:14.898Z,9.05
2019-03-29T12:18:43.278Z,7.15
2019-03-29T12:21:11.656Z,6.90
2019-03-29T12:23:40.026Z,7.62
2019-03-29T12:26:08.419Z,8.68
2019-03-29T12:28:36.787Z,5.30
2019-03-29T12:31:05.176Z,6.90
2019-03-29T12:33:33.557Z,5.97
2019-03-29T12:36:02.019Z,5.95
2019-03-29T12:38:30.439Z,5.65
2019-03-29T12:40:58.839Z,6.67
2019-03-29T12:43:27.206Z,6.85
2019-03-29T12:45:55.611Z,6.90
2019-03-29T12:48:23.986Z,7.37
2019-03-29T12:50:52.383Z,6.35
2019-03-29T12:53:20.767Z,4.37
2019-03-29T12:55:49.151Z,6.80
2019-03-29T12:58:17.524Z,6.97
2019-03-29T13:00:45.921Z,5.12
2019-03-29T13:03:14.282Z,5.03
2019-03-29T13:05:42.762Z,6.25
2019-03-29T13:08:11.127Z,4.85
2019-03-29T13:10:42.396Z,6.20
2019-03-29T13:13:09.547Z,4.97
2019-03-29T13:15:37.918Z,5.58
2019-03-29T13:18:06.304Z,6.60
2019-03-29T13:20:34.695Z,7.95
2019-03-29T13:23:03.065Z,5.33
2019-03-29T13:25:31.474Z,7.08
2019-03-29T13:27:59.858Z,8.33
2019-03-29T13:30:28.322Z,7.45
2019-03-29T13:32:56.680Z,6.87
2019-03-29T13:35:25.078Z,7.17
2019-03-29T13:37:53.456Z,7.80
2019-03-29T13:40:21.915Z,7.40
2019-03-29T13:42:50.232Z,6.65
2019-03-29T13:45:18.624Z,7.37
2019-03-29T13:47:46.987Z,7.75
2019-03-29T13:50:15.392Z,8.45
2019-03-29T13:52:43.881Z,8.08
2019-03-29T13:55:12.231Z,8.10
2019-03-29T13:57:40.630Z,8.53
2019-03-29T14:00:10.826Z,8.83
2019-03-29T14:02:39.228Z,8.38
2019-03-29T14:05:07.605Z,9.70
2019-03-29T14:07:36.000Z,8.93
2019-03-29T14:10:06.610Z,9.83
2019-03-29T14:12:35.008Z,8.33
2019-03-29T14:15:03.545Z,9.93
2019-03-29T14:17:31.940Z,8.10
2019-03-29T14:20:00.390Z,8.18
2019-03-29T14:22:28.711Z,8.73
2019-03-29T14:24:57.086Z,8.73
2019-03-29T14:27:25.491Z,9.30
2019-03-29T14:30:04.133Z,10.20
2019-03-29T14:32:23.919Z,8.48
2019-03-29T14:34:52.287Z,9.65
2019-03-29T14:37:20.689Z,8.65
2019-03-29T14:39:49.063Z,9.88
2019-03-29T14:42:17.461Z,11.12
2019-03-29T14:44:52.371Z,10.72
2019-03-29T14:47:15.888Z,9.35
2019-03-29T14:49:44.264Z,9.75
2019-03-29T14:52:12.670Z,9.73
2019-03-29T14:54:41.040Z,10.13
2019-03-29T14:57:09.447Z,8.95
2019-03-29T14:59:37.819Z,7.78
2019-03-29T15:02:06.206Z,11.28
2019-03-29T15:04:34.587Z,10.00
2019-03-29T15:07:02.963Z,11.95
2019-03-29T15:09:31.337Z,9.73
2019-03-29T15:11:59.728Z,9.68
2019-03-29T15:14:28.095Z,9.83
2019-03-29T15:16:56.488Z,9.58
2019-03-29T15:19:24.864Z,9.00
2019-03-29T15:21:53.266Z,10.50
2019-03-29T15:24:21.641Z,10.58
2019-03-29T15:26:50.022Z,13.20
2019-03-29T15:29:18.395Z,8.80
2019-03-29T15:31:46.803Z,11.83
2019-03-29T15:34:15.180Z,11.73
2019-03-29T15:36:43.570Z,11.33
2019-03-29T15:39:11.946Z,12.07
2019-03-29T15:41:40.420Z,11.12
2019-03-29T15:44:08.793Z,11.95
2019-03-29T15:46:37.182Z,11.95
2019-03-29T15:49:05.492Z,11.10
2019-03-29T15:51:33.929Z,11.03
2019-03-29T15:54:02.319Z,13.72
2019-03-29T15:56:30.737Z,10.82
2019-03-29T15:58:59.177Z,12.30
2019-03-29T16:01:27.554Z,13.83
2019-03-29T16:03:55.981Z,13.83
2019-03-29T16:06:24.371Z,12.23
2019-03-29T16:08:52.796Z,12.15
2019-03-29T16:11:22.550Z,13.30
2019-03-29T16:13:51.103Z,12.88
2019-03-29T16:16:19.498Z,14.15
2019-03-29T16:18:47.933Z,12.63
2019-03-29T16:21:16.311Z,11.28
2019-03-29T16:23:44.743Z,14.13
2019-03-29T16:26:13.144Z,12.85
2019-03-29T16:28:41.541Z,15.15
2019-03-29T16:31:09.949Z,12.43
2019-03-29T16:33:38.358Z,11.68
2019-03-29T16:36:06.757Z,13.38
2019-03-29T16:38:35.165Z,13.10
2019-03-29T16:41:03.620Z,13.40
2019-03-29T16:43:32.021Z,12.00
2019-03-29T16:46:00.548Z,12.80
2019-03-29T16:48:29.090Z,13.28
2019-03-29T16:50:57.494Z,12.40
2019-03-29T16:53:25.913Z,13.00
2019-03-29T16:55:54.312Z,12.35
2019-03-29T16:58:22.734Z,15.93
2019-03-29T17:00:51.212Z,12.00
2019-03-29T17:03:19.723Z,13.22
2019-03-29T17:05:48.146Z,13.75
2019-03-29T17:08:16.587Z,14.07
2019-03-29T17:10:45.191Z,13.25
2019-03-29T17:13:14.025Z,12.55
2019-03-29T17:15:42.589Z,13.30
2019-03-29T17:18:11.092Z,11.93
2019-03-29T17:20:39.507Z,12.28
2019-03-29T17:23:07.967Z,14.05
2019-03-29T17:25:36.449Z,12.43
2019-03-29T17:28:04.869Z,12.07
2019-03-29T17:30:39.500Z,11.75
2019-03-29T17:33:07.919Z,15.70
2019-03-29T17:35:36.315Z,13.50
2019-03-29T17:38:04.869Z,11.88
2019-03-29T17:40:33.350Z,14.30
2019-03-29T17:43:01.784Z,15.18
2019-03-29T17:45:30.219Z,14.05
2019-03-29T17:47:58.639Z,14.50
2019-03-29T17:50:27.064Z,13.50
2019-03-29T17:52:55.474Z,13.18
2019-03-29T17:55:23.903Z,14.47
2019-03-29T17:57:52.307Z,15.88
2019-03-29T18:00:22.350Z,16.62
2019-03-29T18:02:50.729Z,14.55
2019-03-29T18:05:20.064Z,16.00
2019-03-29T18:07:48.459Z,16.35
2019-03-29T18:10:18.141Z,15.38
2019-03-29T18:12:46.620Z,13.53
2019-03-29T18:15:15.237Z,14.85
2019-03-29T18:17:43.639Z,14.50
2019-03-29T18:20:12.037Z,15.03
2019-03-29T18:22:40.427Z,13.72
2019-03-29T18:25:08.927Z,14.20
2019-03-29T18:27:37.323Z,15.05
2019-03-29T18:30:09.289Z,17.25
2019-03-29T18:32:37.934Z,13.10
2019-03-29T18:35:07.333Z,14.20
2019-03-29T18:37:35.804Z,13.28
2019-03-29T18:40:05.684Z,12.03
2019-03-29T18:42:34.158Z,11.65
2019-03-29T18:45:02.846Z,13.13
2019-03-29T18:47:31.264Z,15.45
2019-03-29T18:49:59.684Z,18.85
2019-03-29T18:52:28.107Z,11.43
2019-03-29T18:54:56.569Z,13.18
2019-03-29T18:57:24.971Z,16.30
2019-03-29T18:59:53.390Z,19.12
2019-03-29T19:02:21.789Z,19.07
2019-03-29T19:04:50.265Z,16.02
2019-03-29T19:07:21.983Z,17.98
2019-03-29T19:09:50.463Z,17.05
2019-03-29T19:12:18.880Z,20.88
2019-03-29T19:14:48.655Z,22.30
2019-03-29T19:17:17.181Z,18.05
2019-03-29T19:19:45.735Z,17.25
2019-03-29T19:22:14.272Z,16.90
2019-03-29T19:24:42.661Z,16.52
2019-03-29T19:27:11.090Z,17.55
2019-03-29T19:29:39.553Z,16.10
2019-03-29T19:32:07.984Z,16.00
2019-03-29T19:34:36.415Z,17.00
2019-03-29T19:37:04.848Z,16.35
2019-03-29T19:39:33.286Z,14.75
2019-03-29T19:42:01.712Z,16.52
2019-03-29T19:44:30.133Z,17.12
2019-03-29T19:47:12.473Z,17.27
2019-03-29T19:49:28.673Z,15.93
2019-03-29T19:51:57.104Z,19.15
2019-03-29T19:54:25.511Z,18.20
2019-03-29T19:56:53.992Z,17.20
2019-03-29T19:59:22.941Z,18.20
2019-03-29T20:01:51.384Z,17.00
2019-03-29T20:04:19.798Z,18.98
2019-03-29T20:06:48.319Z,23.02
2019-03-29T20:09:16.794Z,19.50
2019-03-29T20:11:45.255Z,24.05
2019-03-29T20:14:13.686Z,28.35
2019-03-29T20:16:42.090Z,22.93
2019-03-29T20:19:11.640Z,21.27
2019-03-29T20:21:43.257Z,20.82
2019-03-29T20:24:11.713Z,23.67
2019-03-29T20:26:42.414Z,25.08
2019-03-29T20:29:10.811Z,22.42
2019-03-29T20:31:39.263Z,22.05
2019-03-29T20:34:07.794Z,24.23
2019-03-29T20:36:36.222Z,22.07
2019-03-29T20:39:06.998Z,21.55
2019-03-29T20:41:35.793Z,24.45
2019-03-29T20:44:04.198Z,22.52
2019-03-29T20:46:32.626Z,20.88
2019-03-29T20:49:01.044Z,21.77
2019-03-29T20:51:29.480Z,20.57
2019-03-29T20:53:58.008Z,20.48
2019-03-29T20:56:28.835Z,17.37
2019-03-29T20:58:56.557Z,16.93
2019-03-29T21:01:25.022Z,28.45
2019-03-29T21:03:53.416Z,19.35
2019-03-29T21:06:21.839Z,19.80
2019-03-29T21:08:50.246Z,18.27
2019-03-29T21:11:18.671Z,25.45
2019-03-29T21:13:47.215Z,20.57
2019-03-29T21:16:15.811Z,20.50
2019-03-29T21:18:44.227Z,21.55
2019-03-29T21:21:12.684Z,20.60
2019-03-29T21:23:41.108Z,18.92
2019-03-29T21:26:09.534Z,21.93
2019-03-29T21:28:37.956Z,23.27
2019-03-29T21:31:06.400Z,23.65
2019-03-29T21:33:34.946Z,20.90
2019-03-29T21:36:03.431Z,17.60
2019-03-29T21:38:31.902Z,22.80
2019-03-29T21:41:00.342Z,22.70
2019-03-29T21:43:28.798Z,20.10
2019-03-29T21:45:57.239Z,28.92
2019-03-29T21:48:28.898Z,29.12
2019-03-29T21:50:56.110Z,27.87
2019-03-29T21:53:24.645Z,24.55
2019-03-29T21:55:53.123Z,20.52
2019-03-29T21:58:21.496Z,20.92
2019-03-29T22:00:49.898Z,22.22
2019-03-29T22:03:18.322Z,17.82
2019-03-29T22:05:47.386Z,22.15
2019-03-29T22:08:17.972Z,26.68
2019-03-29T22:10:45.936Z,25.52
2019-03-29T22:13:14.401Z,24.45
2019-03-29T22:15:42.773Z,23.92
2019-03-29T22:18:11.166Z,23.40
2019-03-29T22:20:39.607Z,26.77
2019-03-29T22:23:08.006Z,29.35
2019-03-29T22:25:36.459Z,24.95
2019-03-29T22:28:04.846Z,24.02
2019-03-29T22:30:33.152Z,25.37
2019-03-29T22:33:03.992Z,25.52
2019-03-29T22:35:31.596Z,22.70
2019-03-29T22:37:59.984Z,23.07
2019-03-29T22:40:28.370Z,22.05
2019-03-29T22:42:56.776Z,22.07
2019-03-29T22:45:25.143Z,21.97
2019-03-29T22:47:53.546Z,24.47
2019-03-29T22:50:21.958Z,27.02
2019-03-29T22:52:50.327Z,26.45
2019-03-29T22:55:18.786Z,22.37
2019-03-29T22:57:47.246Z,23.15
2019-03-29T23:00:18.832Z,21.77
2019-03-29T23:02:47.308Z,21.52
2019-03-29T23:05:15.681Z,21.52
2019-03-29T23:07:44.079Z,22.93
2019-03-29T23:10:12.484Z,22.10
2019-03-29T23:12:40.880Z,20.17
2019-03-29T23:15:09.272Z,20.20
2019-03-29T23:17:37.676Z,19.80
2019-03-29T23:20:06.207Z,21.95
2019-03-29T23:22:34.532Z,23.77
2019-03-29T23:25:02.986Z,22.25
2019-03-29T23:27:31.380Z,21.33
2019-03-29T23:29:59.754Z,20.27
2019-03-29T23:32:28.164Z,19.80
2019-03-29T23:34:56.539Z,20.50
2019-03-29T23:37:24.948Z,21.42
2019-03-29T23:39:53.303Z,18.95
2019-03-29T23:42:21.682Z,19.50
2019-03-29T23:44:50.096Z,19.45
2019-03-29T23:47:18.480Z,20.12
2019-03-29T23:49:47.189Z,18.10
2019-03-29T23:52:15.666Z,21.25
2019-03-29T23:54:44.055Z,20.68
2019-03-29T23:57:12.448Z,20.88
2019-03-29T23:59:40.842Z,21.07
